Time;durP1;ratioP1;P1;durP2;ratioP2;P2;SDS_P1;SDS_P2;PMS_P1;PMS_P2;Temp;Humidity;BMP_temperature;BMP_pressure;BME280_temperature;BME280_humidity;BME280_pressure;Samples;Min_cycle;Max_cycle;Signal;HPM_P1;HPM_P2
2021/12/24 00:01:24;;;;;;;799.23;740.97;;;8.80;99.90;;;;;;4992632;28;20442;-80
2021/12/24 00:03:54;;;;;;;803.93;744.03;;;8.90;99.90;;;;;;4999328;28;20564;-80
2021/12/24 00:06:21;;;;;;;805.27;744.67;;;8.90;99.90;;;;;;4991528;28;20461;-80
2021/12/24 00:08:49;;;;;;;805.17;744.00;;;8.90;99.90;;;;;;4997243;28;21057;-80
2021/12/24 00:11:19;;;;;;;822.20;757.93;;;8.80;99.90;;;;;;4985604;28;20474;-80
2021/12/24 00:13:48;;;;;;;813.27;751.40;;;8.80;99.90;;;;;;4977980;28;20475;-80
2021/12/24 00:16:24;;;;;;;833.87;766.23;;;8.80;99.90;;;;;;4989265;28;20517;-80
2021/12/24 00:18:59;;;;;;;848.97;778.30;;;8.80;99.90;;;;;;4987324;28;20455;-80
2021/12/24 00:35:17;;;;;;;902.73;823.13;;;8.50;99.90;;;;;;4996435;28;20477;-79
2021/12/24 00:37:49;;;;;;;914.63;834.00;;;8.50;99.90;;;;;;4984941;28;20455;-80
2021/12/24 00:40:19;;;;;;;920.43;837.07;;;8.50;99.90;;;;;;4979697;28;20446;-79
2021/12/24 00:42:55;;;;;;;888.93;809.47;;;8.40;99.90;;;;;;4996528;28;20466;-80
2021/12/24 00:45:24;;;;;;;883.60;806.17;;;8.40;99.90;;;;;;4992121;28;20500;-80
2021/12/24 00:47:54;;;;;;;845.33;771.03;;;8.40;99.90;;;;;;4985597;28;20454;-80
2021/12/24 00:50:29;;;;;;;833.57;758.87;;;8.60;99.90;;;;;;4995320;28;20478;-80
2021/12/24 00:53:02;;;;;;;827.63;754.40;;;8.60;99.90;;;;;;4996864;28;20477;-80
2021/12/24 00:55:32;;;;;;;823.97;752.57;;;8.60;99.90;;;;;;4991401;28;20455;-80
2021/12/24 00:58:01;;;;;;;835.73;763.77;;;8.60;99.90;;;;;;4977359;28;20490;-80
2021/12/24 01:00:32;;;;;;;836.27;764.77;;;8.60;99.90;;;;;;4977480;28;20455;-80
2021/12/24 01:03:01;;;;;;;842.03;769.50;;;8.60;99.90;;;;;;4978649;28;20845;-79
2021/12/24 01:05:30;;;;;;;844.77;772.97;;;8.60;99.90;;;;;;4976357;28;20463;-80
2021/12/24 01:08:00;;;;;;;848.73;776.43;;;8.60;99.90;;;;;;4996664;28;20468;-80
2021/12/24 01:10:31;;;;;;;843.60;772.97;;;8.60;99.90;;;;;;4988328;28;20513;-79
2021/12/24 01:13:12;;;;;;;882.47;805.70;;;8.60;99.90;;;;;;4976695;28;20475;-80
2021/12/24 01:15:52;;;;;;;890.07;811.00;;;8.60;99.90;;;;;;4977290;28;20461;-80
2021/12/24 01:18:28;;;;;;;885.10;807.10;;;8.60;99.90;;;;;;4978599;28;20451;-80
2021/12/24 01:21:10;;;;;;;881.43;802.17;;;8.60;99.90;;;;;;4976983;28;20455;-80
2021/12/24 01:23:45;;;;;;;870.57;791.57;;;8.50;99.90;;;;;;4981063;28;20509;-80
2021/12/24 01:26:23;;;;;;;869.20;792.50;;;8.60;99.90;;;;;;4995919;28;20934;-80
2021/12/24 01:29:34;;;;;;;886.27;806.27;;;8.60;99.90;;;;;;4990960;28;20455;-80
2021/12/24 01:40:50;;;;;;;902.50;819.83;;;8.50;99.90;;;;;;4970068;28;20450;-80
2021/12/24 01:43:16;;;;;;;883.17;801.50;;;8.60;99.90;;;;;;4976243;28;20555;-80
2021/12/24 01:45:52;;;;;;;883.33;802.90;;;8.60;99.90;;;;;;4995138;28;20442;-80
2021/12/24 01:48:24;;;;;;;876.63;796.63;;;8.50;99.90;;;;;;4982974;28;20454;-79
2021/12/24 01:50:53;;;;;;;875.50;794.50;;;8.60;99.90;;;;;;4976125;28;20510;-80
2021/12/24 01:53:25;;;;;;;866.43;787.33;;;8.70;99.90;;;;;;4987671;28;20477;-80
2021/12/24 01:55:55;;;;;;;853.97;774.87;;;8.60;99.90;;;;;;4995381;28;20553;-80
2021/12/24 01:58:24;;;;;;;859.67;781.40;;;8.80;99.90;;;;;;4984293;28;20517;-80
2021/12/24 02:00:55;;;;;;;847.43;773.93;;;8.70;99.90;;;;;;4974599;28;20514;-80
2021/12/24 02:03:23;;;;;;;850.40;774.20;;;8.80;99.90;;;;;;4986447;28;20561;-80
2021/12/24 02:05:52;;;;;;;845.17;771.40;;;8.80;99.90;;;;;;4995444;28;20997;-80
2021/12/24 02:08:21;;;;;;;844.77;771.70;;;8.80;99.90;;;;;;4985381;28;21023;-80
2021/12/24 02:10:56;;;;;;;827.83;758.87;;;8.90;99.90;;;;;;4976138;28;21053;-80
2021/12/24 02:13:23;;;;;;;841.00;770.00;;;8.90;99.90;;;;;;4977828;28;20502;-80
2021/12/24 02:16:09;;;;;;;841.00;769.40;;;8.90;99.90;;;;;;4978209;28;20455;-80
2021/12/24 02:28:16;;;;;;;836.57;766.73;;;9.00;99.90;;;;;;4992909;28;20474;-80
2021/12/24 02:29:57;;;;;;;831.93;767.57;;;9.10;99.90;;;;;;4988351;28;20862;-80
2021/12/24 02:32:36;;;;;;;831.27;768.90;;;9.20;99.90;;;;;;4990409;28;20474;-80
2021/12/24 02:35:08;;;;;;;823.27;763.20;;;9.10;99.90;;;;;;4976584;28;20546;-80
2021/12/24 02:37:40;;;;;;;808.77;749.63;;;9.20;99.90;;;;;;4982212;28;20534;-80
2021/12/24 02:40:08;;;;;;;806.97;748.97;;;9.10;99.90;;;;;;4995103;28;20481;-80
2021/12/24 02:42:35;;;;;;;810.13;752.03;;;9.20;99.90;;;;;;4989547;28;20463;-80
2021/12/24 02:45:06;;;;;;;809.40;751.57;;;9.20;99.90;;;;;;4976884;28;20459;-80
2021/12/24 02:47:55;;;;;;;803.13;748.40;;;9.20;99.90;;;;;;4980354;28;20504;-81
2021/12/24 02:56:02;;;;;;;805.93;750.47;;;9.20;99.90;;;;;;4996264;28;20557;-80
2021/12/24 02:58:44;;;;;;;812.50;756.70;;;9.10;99.90;;;;;;4984942;28;20456;-80
2021/12/24 03:01:21;;;;;;;793.27;738.10;;;9.10;99.90;;;;;;4976568;28;20479;-80
2021/12/24 03:03:53;;;;;;;796.83;740.77;;;9.10;99.90;;;;;;4989169;28;20497;-81
2021/12/24 03:06:30;;;;;;;795.87;738.77;;;9.10;99.90;;;;;;4987001;28;20459;-80
2021/12/24 03:09:00;;;;;;;802.07;746.40;;;9.00;99.90;;;;;;4977039;28;20486;-80
2021/12/24 03:11:30;;;;;;;807.13;749.77;;;9.10;99.90;;;;;;4976300;28;20488;-80
2021/12/24 03:13:57;;;;;;;816.53;759.60;;;9.10;99.90;;;;;;4982521;28;20995;-80
2021/12/24 03:16:33;;;;;;;801.07;745.60;;;9.10;99.90;;;;;;4995927;28;20450;-80
2021/12/24 03:19:09;;;;;;;807.57;751.67;;;9.10;99.90;;;;;;4997264;28;20454;-80
2021/12/24 03:21:52;;;;;;;816.03;757.80;;;9.10;99.90;;;;;;4993658;28;20451;-81
2021/12/24 03:24:39;;;;;;;813.43;755.77;;;9.00;99.90;;;;;;4980311;28;20458;-80
2021/12/24 03:27:18;;;;;;;818.17;758.20;;;9.10;99.90;;;;;;4981351;28;20451;-81
2021/12/24 03:30:02;;;;;;;816.20;754.33;;;9.00;99.90;;;;;;4980581;28;20553;-80
2021/12/24 03:32:36;;;;;;;821.70;758.63;;;8.90;99.90;;;;;;4992661;28;20506;-80
2021/12/24 03:35:17;;;;;;;819.47;755.47;;;9.00;99.90;;;;;;5000350;28;20458;-80
2021/12/24 03:37:56;;;;;;;828.07;762.57;;;9.00;99.90;;;;;;4985438;28;20466;-81
2021/12/24 03:40:45;;;;;;;823.40;758.40;;;8.90;99.90;;;;;;4980812;28;20482;-80
2021/12/24 03:43:14;;;;;;;828.33;762.83;;;8.90;99.90;;;;;;4997172;28;20906;-80
2021/12/24 03:45:59;;;;;;;827.97;760.87;;;8.90;99.90;;;;;;4990441;28;20459;-81
2021/12/24 03:48:45;;;;;;;825.80;760.00;;;8.90;99.90;;;;;;4980073;28;20537;-81
2021/12/24 03:51:34;;;;;;;823.33;757.13;;;8.90;99.90;;;;;;4981793;28;20501;-81
2021/12/24 03:57:11;;;;;;;820.57;755.73;;;8.90;99.90;;;;;;4998947;28;20449;-80
2021/12/24 03:59:38;;;;;;;803.37;740.73;;;9.00;99.90;;;;;;4997170;28;20593;-80
2021/12/24 04:02:05;;;;;;;813.30;748.87;;;9.00;99.90;;;;;;5003016;28;20908;-80
2021/12/24 04:04:35;;;;;;;812.17;749.20;;;8.90;99.90;;;;;;5001670;28;20511;-81
2021/12/24 04:07:13;;;;;;;808.57;746.03;;;9.00;99.90;;;;;;4974790;28;20458;-81
2021/12/24 04:09:53;;;;;;;806.63;744.63;;;9.00;99.90;;;;;;4980214;28;20454;-81
2021/12/24 04:12:49;;;;;;;;;;;;;;;;;;;;;
2021/12/24 04:15:36;;;;;;;809.60;749.87;;;9.10;99.90;;;;;;4979570;28;20466;-81
2021/12/24 04:18:14;;;;;;;798.97;740.77;;;9.10;99.90;;;;;;4992564;28;20870;-81
2021/12/24 04:26:16;;;;;;;785.57;735.60;;;9.30;99.90;;;;;;4961332;29;20450;-81
2021/12/24 04:28:56;;;;;;;798.60;747.60;;;9.40;99.90;;;;;;4960416;29;20547;-82
2021/12/24 04:31:29;;;;;;;806.17;753.83;;;9.30;99.90;;;;;;4959496;28;20522;-81
2021/12/24 04:33:59;;;;;;;789.60;740.50;;;9.30;99.90;;;;;;4965491;28;20515;-82
2021/12/24 04:36:45;;;;;;;785.00;736.93;;;9.30;99.90;;;;;;4972763;28;20462;-80
2021/12/24 04:39:36;;;;;;;775.30;727.70;;;9.30;99.90;;;;;;4978936;28;20550;-81
2021/12/24 05:01:10;;;;;;;750.33;708.73;;;9.30;99.90;;;;;;4978973;28;21029;-81
2021/12/24 05:01:49;;;;;;;742.23;700.37;;;9.40;99.90;;;;;;4937941;29;20968;-80
2021/12/24 05:04:24;;;;;;;749.07;704.40;;;9.40;99.90;;;;;;4962290;28;20486;-81
2021/12/24 05:06:57;;;;;;;751.57;706.07;;;9.30;99.90;;;;;;4978247;28;20466;-81
2021/12/24 05:09:25;;;;;;;764.20;717.77;;;9.30;99.90;;;;;;4978614;28;20452;-81
2021/12/24 05:11:55;;;;;;;766.43;719.30;;;9.30;99.90;;;;;;4980103;28;20527;-81
2021/12/24 05:14:22;;;;;;;770.20;722.10;;;9.30;99.90;;;;;;4979745;28;20998;-81
2021/12/24 05:16:54;;;;;;;762.43;716.80;;;9.30;99.90;;;;;;4978764;28;20863;-80
2021/12/24 05:22:05;;;;;;;762.93;716.80;;;9.30;99.90;;;;;;4977809;28;20450;-81
2021/12/24 05:24:35;;;;;;;765.37;718.50;;;9.30;99.90;;;;;;4978682;28;20463;-82
2021/12/24 05:27:05;;;;;;;773.13;726.07;;;9.40;99.90;;;;;;4978239;28;20461;-80
2021/12/24 05:29:32;;;;;;;759.30;714.30;;;9.30;99.90;;;;;;4990821;28;20825;-80
2021/12/24 05:32:02;;;;;;;780.33;733.13;;;9.40;99.90;;;;;;4979476;28;20513;-80
2021/12/24 05:34:29;;;;;;;773.27;726.07;;;9.30;99.90;;;;;;4999357;28;20457;-79
2021/12/24 05:36:57;;;;;;;768.37;721.50;;;9.30;99.90;;;;;;4987236;28;20456;-80
2021/12/24 05:39:24;;;;;;;769.73;722.77;;;9.30;99.90;;;;;;4977124;28;20461;-80
2021/12/24 05:41:51;;;;;;;781.03;733.50;;;9.40;99.90;;;;;;4985382;28;20968;-80
2021/12/24 05:44:18;;;;;;;789.00;739.80;;;9.30;99.90;;;;;;4997134;28;20905;-80
2021/12/24 05:46:46;;;;;;;784.77;734.63;;;9.30;99.90;;;;;;4989170;28;20981;-80
2021/12/24 05:49:14;;;;;;;781.67;732.87;;;9.30;99.90;;;;;;4976234;28;20483;-80
2021/12/24 05:51:42;;;;;;;787.33;737.00;;;9.30;99.90;;;;;;4973845;28;20483;-80
2021/12/24 05:54:09;;;;;;;794.00;743.43;;;9.30;99.90;;;;;;4976480;28;20486;-80
2021/12/24 05:56:46;;;;;;;791.27;740.53;;;9.30;99.90;;;;;;4990463;28;20457;-80
2021/12/24 05:59:13;;;;;;;806.37;756.53;;;9.30;99.90;;;;;;4987273;28;20550;-80
2021/12/24 06:01:40;;;;;;;806.87;755.47;;;9.30;99.90;;;;;;4979674;28;20502;-80
2021/12/24 06:04:09;;;;;;;808.30;757.13;;;9.20;99.90;;;;;;4977742;28;20498;-80
2021/12/24 06:06:37;;;;;;;808.90;757.47;;;9.30;99.90;;;;;;4984950;28;20457;-80
2021/12/24 06:09:04;;;;;;;811.00;759.93;;;9.30;99.90;;;;;;4995858;28;20459;-80
2021/12/24 06:11:33;;;;;;;804.30;753.20;;;9.20;99.90;;;;;;4989124;28;20462;-80
2021/12/24 06:14:08;;;;;;;810.50;758.63;;;9.20;99.90;;;;;;4977562;28;20476;-80
2021/12/24 06:16:36;;;;;;;816.37;763.57;;;9.20;99.90;;;;;;4976708;28;20455;-80
2021/12/24 06:19:03;;;;;;;809.83;757.07;;;9.20;99.90;;;;;;4979681;28;20454;-80
2021/12/24 06:21:33;;;;;;;808.00;755.20;;;9.20;99.90;;;;;;4995357;28;20521;-80
2021/12/24 06:24:01;;;;;;;817.60;764.10;;;9.20;99.90;;;;;;4995149;28;20473;-80
2021/12/24 06:26:31;;;;;;;811.43;759.17;;;9.30;99.90;;;;;;4990659;28;20833;-80
2021/12/24 06:28:57;;;;;;;814.63;762.27;;;9.20;99.90;;;;;;4957194;29;20459;-80
2021/12/24 06:31:24;;;;;;;815.73;761.93;;;9.20;99.90;;;;;;4966007;28;20476;-80
2021/12/24 06:33:51;;;;;;;812.80;758.57;;;9.10;99.90;;;;;;4979484;28;20486;-80
2021/12/24 06:36:18;;;;;;;809.97;756.40;;;9.10;99.90;;;;;;4976333;28;20455;-80
2021/12/24 06:38:44;;;;;;;815.13;760.37;;;9.20;99.90;;;;;;4976684;28;20451;-80
2021/12/24 06:41:12;;;;;;;815.60;760.53;;;9.10;99.90;;;;;;4976827;28;20985;-80
2021/12/24 06:43:39;;;;;;;814.23;758.93;;;9.00;99.90;;;;;;4977125;28;20474;-81
2021/12/24 06:46:11;;;;;;;816.60;761.27;;;9.10;99.90;;;;;;4990953;28;20457;-80
2021/12/24 06:48:38;;;;;;;821.80;764.37;;;9.10;99.90;;;;;;4996142;28;20467;-82
2021/12/24 06:51:07;;;;;;;820.27;764.13;;;9.10;99.90;;;;;;4983025;28;20461;-84
2021/12/24 06:53:35;;;;;;;818.67;763.07;;;9.10;99.90;;;;;;4975396;28;20483;-83
2021/12/24 06:56:02;;;;;;;822.37;764.90;;;9.10;99.90;;;;;;4989208;28;20454;-83
2021/12/24 06:58:30;;;;;;;816.30;759.40;;;9.10;99.90;;;;;;4992050;28;20460;-83
2021/12/24 07:00:56;;;;;;;810.20;753.97;;;9.00;99.90;;;;;;4983557;28;20451;-83
2021/12/24 07:03:25;;;;;;;809.13;753.23;;;9.10;99.90;;;;;;4986103;28;20488;-82
2021/12/24 07:05:54;;;;;;;810.00;754.70;;;9.10;99.90;;;;;;4994901;28;20458;-83
2021/12/24 07:08:21;;;;;;;806.77;751.97;;;9.20;99.90;;;;;;4976818;28;20462;-83
2021/12/24 07:10:48;;;;;;;803.70;749.40;;;9.20;99.90;;;;;;4978902;28;20465;-83
2021/12/24 07:13:16;;;;;;;804.50;751.40;;;9.20;99.90;;;;;;4981288;28;20477;-83
2021/12/24 07:15:44;;;;;;;811.40;757.00;;;9.10;99.90;;;;;;4976931;28;20455;-83
2021/12/24 07:18:11;;;;;;;805.83;752.20;;;9.10;99.90;;;;;;4978257;28;20978;-82
2021/12/24 07:20:38;;;;;;;808.70;754.00;;;9.10;99.90;;;;;;4978889;28;20527;-84
2021/12/24 07:23:05;;;;;;;811.80;757.00;;;9.10;99.90;;;;;;4978007;28;20474;-84
2021/12/24 07:25:35;;;;;;;811.43;756.10;;;9.20;99.90;;;;;;4978250;28;20470;-83
2021/12/24 07:28:02;;;;;;;826.73;770.10;;;9.10;99.90;;;;;;4977860;28;20461;-83
2021/12/24 07:30:53;;;;;;;820.63;763.93;;;9.10;99.90;;;;;;4976716;28;20460;-83
2021/12/24 07:33:35;;;;;;;821.90;764.83;;;9.10;99.90;;;;;;4977169;28;20831;-83
2021/12/24 07:36:13;;;;;;;826.97;768.40;;;9.00;99.90;;;;;;4976686;28;20569;-83
2021/12/24 07:38:42;;;;;;;826.50;767.83;;;9.10;99.90;;;;;;4976601;28;20451;-83
2021/12/24 07:41:15;;;;;;;832.37;773.53;;;9.00;99.90;;;;;;4976445;28;20533;-83
2021/12/24 07:43:43;;;;;;;828.10;768.13;;;9.00;99.90;;;;;;4976970;28;20478;-83
2021/12/24 07:46:17;;;;;;;839.00;776.00;;;9.00;99.90;;;;;;4977641;28;20481;-84
2021/12/24 07:48:49;;;;;;;839.00;775.20;;;8.90;99.90;;;;;;4978884;28;20467;-83
2021/12/24 07:54:08;;;;;;;832.43;763.77;;;8.70;99.90;;;;;;4976614;28;21089;-83
2021/12/24 07:56:35;;;;;;;832.47;764.87;;;8.80;99.90;;;;;;4976309;28;20537;-82
2021/12/24 07:59:02;;;;;;;824.00;755.80;;;8.70;99.90;;;;;;4973294;28;20821;-82
2021/12/24 08:01:34;;;;;;;822.63;755.80;;;8.80;99.90;;;;;;4978706;28;20462;-82
2021/12/24 08:04:03;;;;;;;820.17;753.37;;;8.70;99.90;;;;;;4974660;28;20852;-82
2021/12/24 08:06:30;;;;;;;811.40;745.40;;;8.80;99.90;;;;;;4979460;28;20876;-82
2021/12/24 08:08:57;;;;;;;816.30;751.67;;;8.90;99.90;;;;;;4979056;28;20545;-82
2021/12/24 08:11:23;;;;;;;810.90;746.50;;;8.90;99.90;;;;;;4979036;28;20465;-83
2021/12/24 08:13:50;;;;;;;797.43;736.30;;;9.00;99.90;;;;;;4978284;28;20482;-83
2021/12/24 08:16:19;;;;;;;803.73;744.10;;;8.90;99.90;;;;;;4981133;28;20538;-82
2021/12/24 08:18:47;;;;;;;800.47;741.07;;;9.00;99.90;;;;;;4980804;28;20455;-82
2021/12/24 08:21:14;;;;;;;798.33;741.83;;;8.90;99.90;;;;;;4981271;28;20458;-83
2021/12/24 08:23:44;;;;;;;810.53;754.03;;;9.00;99.90;;;;;;4980764;28;20991;-82
2021/12/24 08:26:11;;;;;;;810.13;752.73;;;8.90;99.90;;;;;;4981526;28;20827;-83
2021/12/24 08:28:40;;;;;;;804.07;747.33;;;8.90;99.90;;;;;;4978323;28;20459;-85
2021/12/24 08:31:08;;;;;;;805.90;749.40;;;8.90;99.90;;;;;;4980016;28;20455;-86
2021/12/24 08:33:35;;;;;;;806.10;749.07;;;8.80;99.90;;;;;;4980929;28;20493;-85
2021/12/24 08:36:04;;;;;;;796.40;740.27;;;8.90;99.90;;;;;;4983370;28;20479;-82
2021/12/24 08:38:32;;;;;;;781.53;726.20;;;8.80;99.90;;;;;;4981094;28;20857;-85
2021/12/24 08:40:59;;;;;;;793.67;738.03;;;8.90;99.90;;;;;;4981239;28;20455;-85
2021/12/24 08:43:25;;;;;;;797.20;740.97;;;9.00;99.90;;;;;;4981630;28;20471;-85
2021/12/24 08:45:52;;;;;;;791.73;737.63;;;9.00;99.90;;;;;;4980842;28;20477;-85
2021/12/24 08:48:19;;;;;;;784.40;731.50;;;9.00;99.90;;;;;;4980157;28;20461;-86
2021/12/24 08:50:47;;;;;;;785.33;732.23;;;9.00;99.90;;;;;;4980797;28;20455;-83
2021/12/24 08:53:15;;;;;;;776.50;725.87;;;9.10;99.90;;;;;;4980756;28;20483;-86
2021/12/24 08:55:42;;;;;;;771.50;723.03;;;9.10;99.90;;;;;;4979522;28;20478;-86
2021/12/24 08:58:09;;;;;;;771.63;723.73;;;9.10;99.90;;;;;;4981001;28;20447;-86
2021/12/24 09:00:37;;;;;;;757.10;710.47;;;9.00;99.90;;;;;;4979781;28;20455;-85
2021/12/24 09:03:10;;;;;;;745.53;701.00;;;9.10;99.90;;;;;;4980049;28;20471;-84
2021/12/24 09:05:37;;;;;;;748.10;702.93;;;9.20;99.90;;;;;;5002572;28;20482;-84
2021/12/24 09:08:07;;;;;;;757.03;712.70;;;9.10;99.90;;;;;;5004997;28;20450;-84
2021/12/24 09:10:37;;;;;;;738.70;696.03;;;9.10;99.90;;;;;;5006699;28;20582;-84
2021/12/24 09:13:07;;;;;;;737.50;695.40;;;9.10;99.90;;;;;;5002722;28;20521;-85
2021/12/24 09:15:34;;;;;;;719.33;677.77;;;9.10;99.90;;;;;;4983198;28;20451;-84
2021/12/24 09:18:03;;;;;;;727.80;687.40;;;9.10;99.90;;;;;;4982549;28;20882;-84
2021/12/24 09:20:37;;;;;;;704.73;665.50;;;9.20;99.90;;;;;;4981896;28;20458;-85
2021/12/24 09:23:05;;;;;;;702.37;663.73;;;9.30;99.90;;;;;;4981639;28;20483;-83
2021/12/24 09:25:44;;;;;;;686.73;651.80;;;9.20;99.90;;;;;;4981732;28;20470;-82
2021/12/24 09:28:28;;;;;;;656.00;623.03;;;9.30;99.90;;;;;;4981605;28;20543;-82
2021/12/24 09:34:03;;;;;;;664.83;630.97;;;9.30;99.90;;;;;;4961235;28;20482;-82
2021/12/24 09:36:38;;;;;;;671.87;637.17;;;9.20;99.90;;;;;;4981021;28;20489;-82
2021/12/24 09:39:13;;;;;;;649.23;617.43;;;9.30;99.90;;;;;;4978711;28;20458;-83
2021/12/24 09:42:00;;;;;;;627.80;597.27;;;9.30;99.90;;;;;;4978597;28;20489;-82
2021/12/24 09:44:34;;;;;;;614.27;585.00;;;9.30;99.90;;;;;;4988736;28;20533;-83
2021/12/24 09:47:22;;;;;;;569.90;543.73;;;9.40;99.90;;;;;;4997273;28;20946;-83
2021/12/24 09:49:59;;;;;;;499.73;478.03;;;9.50;99.90;;;;;;4996433;28;20458;-83
2021/12/24 09:52:28;;;;;;;519.03;496.63;;;9.50;99.90;;;;;;4995494;28;20496;-84
2021/12/24 09:54:56;;;;;;;497.17;475.73;;;9.50;99.90;;;;;;4977601;28;20458;-84
2021/12/24 09:57:25;;;;;;;425.77;407.70;;;9.50;99.90;;;;;;4974665;28;20203;-84
2021/12/24 09:59:54;;;;;;;372.53;357.73;;;9.60;99.90;;;;;;4990864;28;20459;-84
2021/12/24 10:02:28;;;;;;;375.73;360.97;;;9.60;99.90;;;;;;4993733;28;20484;-83
2021/12/24 10:04:55;;;;;;;352.47;338.70;;;9.70;99.90;;;;;;4978788;28;20872;-84
2021/12/24 10:07:25;;;;;;;291.77;279.97;;;9.70;99.90;;;;;;4974597;28;20467;-84
2021/12/24 10:09:52;;;;;;;272.37;261.63;;;9.70;99.90;;;;;;4989879;28;20454;-84
2021/12/24 10:12:23;;;;;;;302.83;291.27;;;9.80;99.90;;;;;;4993911;28;20478;-84
2021/12/24 10:14:53;;;;;;;310.47;298.17;;;9.70;99.90;;;;;;4988931;28;20466;-84
2021/12/24 10:17:26;;;;;;;292.63;281.53;;;9.80;99.90;;;;;;4991918;28;21017;-85
2021/12/24 10:19:55;;;;;;;248.67;239.10;;;9.80;99.90;;;;;;4974510;28;20458;-84
2021/12/24 10:22:22;;;;;;;247.73;238.73;;;9.70;99.90;;;;;;4973743;28;20475;-84
2021/12/24 10:25:00;;;;;;;285.30;274.80;;;9.80;99.90;;;;;;4953975;29;20657;-83
2021/12/24 10:27:29;;;;;;;297.37;285.83;;;9.70;99.90;;;;;;4955345;28;20466;-84
2021/12/24 10:30:01;;;;;;;264.47;254.00;;;9.80;99.90;;;;;;4975221;28;20854;-84
2021/12/24 10:32:27;;;;;;;258.50;247.80;;;9.90;99.90;;;;;;4973334;28;20479;-84
2021/12/24 10:34:54;;;;;;;217.10;207.50;;;9.80;99.90;;;;;;4974618;28;20475;-84
2021/12/24 10:37:24;;;;;;;258.83;248.73;;;9.80;99.90;;;;;;4973419;28;20458;-85
2021/12/24 10:39:53;;;;;;;248.73;238.17;;;9.90;99.90;;;;;;4991878;28;20460;-84
2021/12/24 10:42:27;;;;;;;220.27;210.87;;;9.90;99.90;;;;;;4993639;28;20478;-84
2021/12/24 10:45:10;;;;;;;203.93;195.03;;;9.90;99.90;;;;;;4975753;28;20948;-84
2021/12/24 10:47:47;;;;;;;147.57;139.73;;;9.90;99.90;;;;;;4972377;28;20464;-84
2021/12/24 10:50:30;;;;;;;161.80;154.67;;;10.00;99.90;;;;;;4980214;28;20458;-84
2021/12/24 10:53:18;;;;;;;137.07;129.80;;;10.00;99.90;;;;;;4974762;28;20898;-84
2021/12/24 10:55:56;;;;;;;161.43;154.43;;;10.00;99.90;;;;;;4973796;28;20462;-84
2021/12/24 10:58:33;;;;;;;152.07;144.93;;;9.90;99.90;;;;;;4977906;28;20450;-85
2021/12/24 11:01:02;;;;;;;127.53;121.50;;;10.00;99.90;;;;;;4996891;28;20462;-85
2021/12/24 11:07:58;;;;;;;137.50;131.40;;;10.00;99.90;;;;;;4921733;29;20449;-84
2021/12/24 11:10:34;;;;;;;128.77;122.93;;;10.00;99.90;;;;;;4910674;29;20463;-84
2021/12/24 11:13:07;;;;;;;140.83;133.93;;;10.00;99.90;;;;;;4956214;28;20489;-85
2021/12/24 11:15:37;;;;;;;156.10;148.50;;;9.90;99.90;;;;;;4993716;28;20454;-84
2021/12/24 11:18:10;;;;;;;149.30;142.63;;;9.90;99.90;;;;;;4992668;28;20468;-84
2021/12/24 11:20:37;;;;;;;190.57;182.20;;;9.80;99.90;;;;;;4972517;28;20459;-84
2021/12/24 11:23:10;;;;;;;189.80;182.30;;;9.80;99.90;;;;;;4978230;28;20474;-84
2021/12/24 11:25:40;;;;;;;188.60;180.33;;;9.90;99.90;;;;;;4993041;28;20458;-84
2021/12/24 11:28:08;;;;;;;181.43;173.70;;;9.90;99.90;;;;;;4987463;28;20457;-85
2021/12/24 11:30:40;;;;;;;185.10;176.20;;;10.10;99.90;;;;;;4974288;28;20451;-81
2021/12/24 11:33:07;;;;;;;163.80;156.13;;;10.20;99.90;;;;;;4977124;28;20474;-84
2021/12/24 11:35:34;;;;;;;120.57;114.67;;;10.30;99.90;;;;;;4992830;28;20464;-85
2021/12/24 11:38:02;;;;;;;85.70;80.87;;;10.50;99.90;;;;;;4990862;28;20459;-83
2021/12/24 11:40:31;;;;;;;77.57;73.00;;;10.50;99.90;;;;;;4976956;28;20834;-83
2021/12/24 11:43:02;;;;;;;70.30;66.00;;;10.60;99.90;;;;;;4980567;28;20549;-83
2021/12/24 11:45:30;;;;;;;59.43;55.23;;;10.60;99.90;;;;;;4999145;28;20560;-84
2021/12/24 11:47:57;;;;;;;49.83;46.10;;;10.70;99.90;;;;;;4999241;28;20462;-84
2021/12/24 11:50:25;;;;;;;33.53;30.73;;;10.70;99.90;;;;;;4981838;28;20943;-84
2021/12/24 11:53:06;;;;;;;37.30;33.97;;;10.70;99.90;;;;;;4981073;28;20481;-83
2021/12/24 11:55:37;;;;;;;41.20;37.00;;;10.70;99.90;;;;;;4977766;28;20443;-84
2021/12/24 11:58:06;;;;;;;36.33;32.80;;;10.60;99.90;;;;;;4977436;28;20453;-83
2021/12/24 12:00:37;;;;;;;36.93;33.23;;;10.60;99.90;;;;;;4977315;28;20451;-84
2021/12/24 12:03:04;;;;;;;36.53;33.03;;;10.70;99.90;;;;;;4977555;28;20494;-84
2021/12/24 12:05:33;;;;;;;38.73;34.20;;;10.60;99.90;;;;;;4977379;28;20526;-83
2021/12/24 12:08:38;;;;;;;33.37;30.67;;;10.60;99.90;;;;;;4984390;28;20450;-83
2021/12/24 12:11:15;;;;;;;38.20;34.63;;;10.60;99.90;;;;;;4960900;29;20542;-84
2021/12/24 12:13:45;;;;;;;33.20;30.30;;;10.60;99.90;;;;;;4984705;28;20474;-84
2021/12/24 12:16:14;;;;;;;41.63;38.10;;;10.50;99.90;;;;;;4986603;28;20455;-84
2021/12/24 12:18:48;;;;;;;40.27;36.60;;;10.50;99.90;;;;;;4984499;28;20532;-84
2021/12/24 12:21:21;;;;;;;43.90;40.50;;;10.50;99.90;;;;;;4986674;28;20461;-84
2021/12/24 12:24:57;;;;;;;40.73;36.87;;;10.50;99.90;;;;;;4977283;28;20545;-84
2021/12/24 12:26:54;;;;;;;40.13;37.13;;;10.40;99.90;;;;;;4970648;28;20547;-84
2021/12/24 12:29:30;;;;;;;44.03;40.60;;;10.40;99.90;;;;;;4993169;28;20868;-84
2021/12/24 12:32:03;;;;;;;46.60;43.00;;;10.40;99.90;;;;;;4993290;28;20465;-84
2021/12/24 12:34:58;;;;;;;47.63;44.10;;;10.60;99.90;;;;;;4957217;29;20494;-84
2021/12/24 12:37:27;;;;;;;48.23;44.67;;;10.60;99.90;;;;;;4976977;28;20446;-84
2021/12/24 12:39:57;;;;;;;33.63;30.53;;;10.70;99.90;;;;;;4976813;28;20554;-84
2021/12/24 12:43:00;;;;;;;37.20;27.00;;;10.80;99.90;;;;;;4984733;28;20959;-83
2021/12/24 12:46:00;;;;;;;20.33;16.63;;;10.70;99.90;;;;;;4988487;28;20454;-84
2021/12/24 12:48:44;;;;;;;20.17;17.23;;;10.70;99.90;;;;;;4976328;28;20971;-83
2021/12/24 12:51:11;;;;;;;17.33;13.10;;;10.80;99.90;;;;;;4976941;28;20455;-84
2021/12/24 12:53:40;;;;;;;23.93;13.80;;;10.70;99.90;;;;;;4990288;28;20474;-83
2021/12/24 12:56:30;;;;;;;22.23;17.57;;;10.70;99.90;;;;;;4991148;28;20455;-84
2021/12/24 12:59:00;;;;;;;18.40;14.40;;;10.70;99.90;;;;;;4976190;28;20456;-83
2021/12/24 13:01:29;;;;;;;26.40;16.17;;;10.50;99.90;;;;;;4976733;28;20454;-83
2021/12/24 13:04:12;;;;;;;25.30;16.00;;;10.50;99.90;;;;;;4976503;28;20479;-84
2021/12/24 13:06:54;;;;;;;36.17;17.60;;;10.40;99.90;;;;;;4977983;28;21470;-85
2021/12/24 13:09:24;;;;;;;25.90;17.93;;;10.50;99.90;;;;;;4983909;28;20450;-85
2021/12/24 13:11:53;;;;;;;25.10;16.10;;;10.40;99.90;;;;;;4955981;29;20459;-85
2021/12/24 13:14:22;;;;;;;28.57;19.93;;;10.40;99.90;;;;;;4962973;28;20566;-85
2021/12/24 13:16:53;;;;;;;31.47;26.03;;;10.30;99.90;;;;;;4975204;28;20542;-85
2021/12/24 13:19:33;;;;;;;27.87;25.07;;;10.20;99.90;;;;;;4975573;28;20465;-85
2021/12/24 13:24:49;;;;;;;32.93;30.50;;;10.20;99.90;;;;;;4977544;28;20439;-85
2021/12/24 13:27:17;;;;;;;37.60;35.00;;;10.20;99.90;;;;;;4976318;28;20455;-84
2021/12/24 13:29:46;;;;;;;43.33;39.90;;;10.10;99.90;;;;;;4977507;28;20501;-84
2021/12/24 13:32:14;;;;;;;50.17;47.30;;;10.10;99.90;;;;;;4975220;28;20450;-84
2021/12/24 13:34:46;;;;;;;53.53;50.03;;;10.10;99.90;;;;;;4982393;28;20482;-85
2021/12/24 13:37:20;;;;;;;52.40;49.00;;;10.10;99.90;;;;;;4994536;28;20454;-84
2021/12/24 13:39:50;;;;;;;58.27;54.70;;;10.10;99.90;;;;;;4983510;28;20546;-84
2021/12/24 13:42:17;;;;;;;57.63;53.13;;;10.10;99.90;;;;;;4974961;28;20973;-85
2021/12/24 13:44:48;;;;;;;53.90;50.00;;;10.00;99.90;;;;;;4974902;28;20450;-85
2021/12/24 13:47:27;;;;;;;64.63;60.40;;;10.00;99.90;;;;;;4975342;28;20561;-85
2021/12/24 13:50:23;;;;;;;60.17;56.40;;;10.00;99.90;;;;;;4985321;28;20890;-85
2021/12/24 13:55:39;;;;;;;78.70;73.80;;;10.10;99.90;;;;;;4975000;28;20509;-85
2021/12/24 13:58:08;;;;;;;73.97;69.70;;;9.90;99.90;;;;;;4979570;28;20509;-85
2021/12/24 14:00:39;;;;;;;85.83;81.23;;;9.90;99.90;;;;;;4995136;28;20950;-85
2021/12/24 14:03:10;;;;;;;93.80;89.10;;;10.00;99.90;;;;;;4982952;28;20470;-84
2021/12/24 14:05:46;;;;;;;101.50;96.87;;;9.90;99.90;;;;;;4978056;28;20459;-85
2021/12/24 14:08:18;;;;;;;105.03;100.37;;;9.90;99.90;;;;;;4955909;29;20468;-84